Time;durP1;ratioP1;P1;durP2;ratioP2;P2;SDS_P1;SDS_P2;PMS_P1;PMS_P2;Temp;Humidity;BMP_temperature;BMP_pressure;BME280_temperature;BME280_humidity;BME280_pressure;Samples;Min_cycle;Max_cycle;Signal;HPM_P1;HPM_P2
2021/11/02 00:01:05;;;;;;;2.73;1.63;;;10.60;99.90;;;;;;5016029;28;20412;-56
2021/11/02 00:03:31;;;;;;;3.30;2.10;;;10.60;99.90;;;;;;5015794;28;20471;-58
2021/11/02 00:05:57;;;;;;;2.13;1.83;;;10.60;99.90;;;;;;5016182;28;20427;-55
2021/11/02 00:08:23;;;;;;;1.97;1.80;;;10.60;99.90;;;;;;5016113;28;20438;-55
2021/11/02 00:10:48;;;;;;;2.73;1.80;;;10.70;99.90;;;;;;5017781;28;20169;-58
2021/11/02 00:13:16;;;;;;;4.67;2.33;;;10.80;99.90;;;;;;5017030;28;20219;-59
2021/11/02 00:15:45;;;;;;;3.40;1.80;;;10.80;99.90;;;;;;5017115;28;20687;-59
2021/11/02 00:18:11;;;;;;;2.20;1.97;;;10.90;99.90;;;;;;5015992;28;20782;-57
2021/11/02 00:20:38;;;;;;;2.83;2.10;;;10.80;99.90;;;;;;5008992;28;20437;-58
2021/11/02 00:23:06;;;;;;;5.63;2.00;;;10.80;99.90;;;;;;4996106;28;20206;-58
2021/11/02 00:25:32;;;;;;;3.37;2.13;;;10.70;99.90;;;;;;4996157;28;20402;-58
2021/11/02 00:28:02;;;;;;;3.87;2.07;;;10.70;99.90;;;;;;4996014;28;20411;-59
2021/11/02 00:30:28;;;;;;;3.43;1.90;;;10.80;99.90;;;;;;4998613;28;20411;-59
2021/11/02 00:32:57;;;;;;;2.77;1.90;;;10.80;99.90;;;;;;5014842;28;20506;-59
2021/11/02 00:35:24;;;;;;;2.17;1.80;;;10.90;99.90;;;;;;5013840;28;20418;-59
2021/11/02 00:37:52;;;;;;;3.40;2.30;;;11.00;99.90;;;;;;5014666;28;20454;-60
2021/11/02 00:40:20;;;;;;;3.37;2.03;;;11.00;99.90;;;;;;5015116;28;20899;-58
2021/11/02 00:42:54;;;;;;;2.17;1.70;;;10.90;99.90;;;;;;5014961;28;21065;-59
2021/11/02 00:45:28;;;;;;;2.40;1.80;;;11.00;99.90;;;;;;5015389;28;20951;-59
2021/11/02 00:47:55;;;;;;;3.97;2.10;;;10.90;99.90;;;;;;5014694;28;20886;-59
2021/11/02 00:50:21;;;;;;;2.40;1.73;;;10.80;99.90;;;;;;5014533;28;20395;-59
2021/11/02 00:52:46;;;;;;;2.20;1.67;;;10.80;99.90;;;;;;5014708;28;20438;-60
2021/11/02 00:55:12;;;;;;;2.50;1.60;;;10.90;99.90;;;;;;5014011;28;20426;-59
2021/11/02 00:57:38;;;;;;;2.80;1.60;;;11.10;99.90;;;;;;5014701;28;20216;-59
2021/11/02 01:00:06;;;;;;;2.63;1.37;;;11.20;99.90;;;;;;5014774;28;20671;-56
2021/11/02 01:02:31;;;;;;;1.50;1.37;;;11.10;99.90;;;;;;5014544;28;20248;-57
2021/11/02 01:04:57;;;;;;;2.63;1.80;;;11.10;99.90;;;;;;5014864;28;20404;-59
2021/11/02 01:07:23;;;;;;;2.03;1.43;;;11.20;99.90;;;;;;5014295;28;20629;-56
2021/11/02 01:09:49;;;;;;;3.50;1.60;;;11.10;99.90;;;;;;5014149;28;20589;-59
2021/11/02 01:12:15;;;;;;;3.47;1.27;;;11.00;99.90;;;;;;5014142;28;20460;-58
2021/11/02 01:14:43;;;;;;;2.63;1.90;;;11.10;99.90;;;;;;5014485;28;20443;-57
2021/11/02 01:17:09;;;;;;;3.30;1.73;;;11.10;99.90;;;;;;5014218;28;20161;-58
2021/11/02 01:19:35;;;;;;;4.60;1.60;;;11.20;99.90;;;;;;5014354;28;20411;-60
2021/11/02 01:22:01;;;;;;;2.67;1.40;;;11.10;99.90;;;;;;5014424;28;20414;-57
2021/11/02 01:24:27;;;;;;;1.93;1.27;;;11.10;99.90;;;;;;5013570;28;20462;-59
2021/11/02 01:26:53;;;;;;;1.90;1.20;;;11.10;99.90;;;;;;5006909;28;20450;-59
2021/11/02 01:29:19;;;;;;;1.70;1.33;;;11.10;99.90;;;;;;4994457;28;20592;-58
2021/11/02 01:31:46;;;;;;;1.73;1.23;;;11.20;99.90;;;;;;4994732;28;20437;-59
2021/11/02 01:34:11;;;;;;;1.33;1.17;;;11.10;99.90;;;;;;4994285;28;20197;-59
2021/11/02 01:36:39;;;;;;;2.43;1.53;;;11.20;99.90;;;;;;4994396;28;20414;-59
2021/11/02 01:39:06;;;;;;;1.33;1.10;;;11.30;99.90;;;;;;4994109;28;20176;-58
2021/11/02 01:41:33;;;;;;;4.43;2.40;;;11.10;99.90;;;;;;4994418;28;20426;-59
2021/11/02 01:43:59;;;;;;;1.47;1.23;;;11.20;99.90;;;;;;4994328;28;20461;-57
2021/11/02 01:46:33;;;;;;;2.97;1.63;;;11.20;99.90;;;;;;4994027;28;20752;-59
2021/11/02 01:49:01;;;;;;;4.03;1.60;;;11.20;99.90;;;;;;4994234;28;20380;-59
2021/11/02 01:51:30;;;;;;;2.20;1.30;;;11.30;99.90;;;;;;4994311;28;20925;-58
2021/11/02 01:53:56;;;;;;;3.97;1.67;;;11.30;99.90;;;;;;4994665;28;20431;-58
2021/11/02 01:56:22;;;;;;;2.53;1.50;;;11.30;99.90;;;;;;5013564;28;20957;-59
2021/11/02 01:58:54;;;;;;;3.23;1.37;;;11.40;99.90;;;;;;5013479;28;20299;-60
2021/11/02 02:01:25;;;;;;;1.93;1.10;;;11.40;99.90;;;;;;5013097;28;20422;-59
2021/11/02 02:04:01;;;;;;;2.40;1.17;;;11.40;99.90;;;;;;5013574;28;20485;-59
2021/11/02 02:07:20;;;;;;;2.77;1.50;;;11.50;99.90;;;;;;5013840;28;20395;-60
2021/11/02 02:10:03;;;;;;;3.27;1.33;;;11.40;99.90;;;;;;4953459;29;20418;-59
2021/11/02 02:12:42;;;;;;;1.77;0.80;;;11.40;99.90;;;;;;5013691;28;20387;-60
2021/11/02 02:15:20;;;;;;;1.50;1.40;;;11.20;99.90;;;;;;5013080;28;20815;-59
2021/11/02 02:18:08;;;;;;;4.60;1.50;;;11.20;99.90;;;;;;5013806;28;20422;-58
2021/11/02 02:21:01;;;;;;;1.17;1.07;;;11.00;99.90;;;;;;5013569;28;20410;-59
2021/11/02 02:23:46;;;;;;;2.03;1.20;;;11.10;99.90;;;;;;5013089;28;20466;-58
2021/11/02 02:26:45;;;;;;;2.30;0.93;;;11.10;99.90;;;;;;5013992;28;20384;-59
2021/11/02 02:29:12;;;;;;;1.30;0.87;;;11.10;99.90;;;;;;5013913;28;20383;-60
2021/11/02 02:31:42;;;;;;;1.50;1.10;;;11.10;99.90;;;;;;5012980;28;20851;-59
2021/11/02 02:34:12;;;;;;;1.37;1.13;;;11.00;99.90;;;;;;5013249;28;20419;-59
2021/11/02 02:36:40;;;;;;;2.57;1.03;;;11.10;99.90;;;;;;5013248;28;20470;-57
2021/11/02 02:39:09;;;;;;;3.67;1.20;;;11.20;99.90;;;;;;5013200;28;20400;-59
2021/11/02 02:41:35;;;;;;;2.50;1.33;;;11.00;99.90;;;;;;5013507;28;20410;-59
2021/11/02 02:44:03;;;;;;;2.70;1.20;;;11.00;99.90;;;;;;5011808;28;20458;-59
2021/11/02 02:46:29;;;;;;;3.33;1.20;;;10.90;99.90;;;;;;5013097;28;20500;-57
2021/11/02 02:48:56;;;;;;;1.83;1.00;;;10.80;99.90;;;;;;5013175;28;20435;-59
2021/11/02 02:51:22;;;;;;;2.00;1.30;;;10.80;99.90;;;;;;5013400;28;20230;-57
2021/11/02 02:53:49;;;;;;;1.90;1.23;;;10.80;99.90;;;;;;5013389;28;20430;-59
2021/11/02 02:56:18;;;;;;;3.17;1.30;;;10.60;99.90;;;;;;5013304;28;20403;-59
2021/11/02 02:58:47;;;;;;;2.93;1.50;;;10.50;99.90;;;;;;5014755;28;20899;-57
2021/11/02 03:01:16;;;;;;;3.73;1.40;;;10.50;99.90;;;;;;5016367;28;20472;-59
2021/11/02 03:04:02;;;;;;;3.83;1.50;;;10.50;99.90;;;;;;5016625;28;20481;-59
2021/11/02 03:06:31;;;;;;;4.63;1.27;;;10.50;99.90;;;;;;5016879;28;20389;-59
2021/11/02 03:08:57;;;;;;;3.43;1.50;;;10.50;99.90;;;;;;5015435;28;20949;-58
2021/11/02 03:11:27;;;;;;;4.03;1.87;;;10.50;99.90;;;;;;5015684;28;20410;-59
2021/11/02 03:13:55;;;;;;;3.50;1.43;;;10.50;99.90;;;;;;5006804;28;20440;-59
2021/11/02 03:16:34;;;;;;;3.13;1.77;;;10.50;99.90;;;;;;4996571;28;20455;-59
2021/11/02 03:54:43;;;;;;;2.30;1.40;;;10.10;99.90;;;;;;5016046;28;20457;-59
2021/11/02 04:00:25;;;;;;;1.57;1.40;;;9.80;99.90;;;;;;5015334;28;20996;-58
2021/11/02 04:58:15;;;;;;;3.87;1.60;;;9.20;99.90;;;;;;5014607;28;20968;-58
2021/11/02 06:06:49;;;;;;;3.13;2.13;;;8.50;99.90;;;;;;5002300;28;20427;-57
2021/11/02 06:09:22;;;;;;;2.23;1.67;;;8.50;99.90;;;;;;5013509;28;20378;-58
2021/11/02 06:23:43;;;;;;;1.47;1.30;;;8.60;99.90;;;;;;5013137;28;20471;-57
2021/11/02 06:28:58;;;;;;;4.23;3.00;;;8.70;99.90;;;;;;5013644;28;20928;-57
2021/11/02 06:50:01;;;;;;;4.30;2.17;;;8.80;99.90;;;;;;4997671;28;20395;-58
2021/11/02 06:56:07;;;;;;;3.77;1.97;;;8.80;99.90;;;;;;4956166;29;20418;-59
2021/11/02 06:59:15;;;;;;;3.80;2.70;;;8.80;99.90;;;;;;4956042;29;20467;-58
2021/11/02 07:28:33;;;;;;;2.67;1.40;;;9.20;99.90;;;;;;5015942;28;20424;-59
2021/11/02 08:47:26;;;;;;;1.77;1.40;;;11.40;99.90;;;;;;5013492;28;20435;-59
2021/11/02 08:49:52;;;;;;;2.50;1.10;;;11.20;99.90;;;;;;5014279;28;20389;-58
2021/11/02 08:52:20;;;;;;;1.70;1.00;;;11.40;99.90;;;;;;5014406;28;20421;-57
2021/11/02 08:54:48;;;;;;;6.40;1.40;;;11.80;99.90;;;;;;5014494;28;20192;-59
2021/11/02 08:57:15;;;;;;;2.93;1.20;;;11.80;99.90;;;;;;5013227;28;20438;-59
2021/11/02 08:59:40;;;;;;;1.87;1.13;;;11.60;99.90;;;;;;5014055;28;20450;-59
2021/11/02 09:02:08;;;;;;;2.57;1.30;;;11.70;99.90;;;;;;5013677;28;20465;-58
2021/11/02 09:04:43;;;;;;;3.80;1.60;;;11.70;99.90;;;;;;5014269;28;20228;-56
2021/11/02 09:07:10;;;;;;;2.07;1.50;;;11.70;99.90;;;;;;5014374;28;20387;-60
2021/11/02 09:09:40;;;;;;;1.77;1.60;;;11.60;99.90;;;;;;5013963;28;20449;-58
2021/11/02 09:12:07;;;;;;;3.60;2.03;;;11.50;99.90;;;;;;5014314;28;20440;-59
2021/11/02 09:14:37;;;;;;;3.63;1.60;;;11.40;99.90;;;;;;5013763;28;20445;-58
2021/11/02 09:17:05;;;;;;;2.47;1.43;;;11.40;99.90;;;;;;5014010;28;20414;-59
2021/11/02 09:19:33;;;;;;;1.90;1.23;;;11.30;99.90;;;;;;5011846;28;20481;-59
2021/11/02 09:22:00;;;;;;;2.77;1.47;;;11.30;99.90;;;;;;5013519;28;20415;-59
2021/11/02 09:24:27;;;;;;;2.33;1.30;;;11.40;99.90;;;;;;5013602;28;20462;-58
2021/11/02 09:26:54;;;;;;;2.60;1.37;;;11.30;99.90;;;;;;5013391;28;20756;-59
2021/11/02 09:29:20;;;;;;;3.10;1.50;;;11.40;99.90;;;;;;5005061;28;20431;-58
2021/11/02 09:31:47;;;;;;;2.10;1.40;;;11.30;99.90;;;;;;5010770;28;20418;-59
2021/11/02 09:34:12;;;;;;;1.30;1.00;;;11.30;99.90;;;;;;5013415;28;20466;-59
2021/11/02 09:36:44;;;;;;;2.13;1.60;;;11.30;99.90;;;;;;5013608;28;20827;-54
2021/11/02 09:39:11;;;;;;;3.83;1.50;;;11.30;99.90;;;;;;5013759;28;20184;-58
2021/11/02 09:42:14;;;;;;;2.73;1.60;;;11.30;99.90;;;;;;5013453;28;20915;-59
2021/11/02 09:44:50;;;;;;;1.57;1.00;;;11.40;99.90;;;;;;5013386;28;20447;-59
2021/11/02 09:47:25;;;;;;;1.50;1.33;;;11.10;99.90;;;;;;5013334;28;20403;-58
2021/11/02 09:50:29;;;;;;;3.93;1.27;;;11.10;99.90;;;;;;5013732;28;20926;-59
2021/11/02 09:53:20;;;;;;;3.50;1.47;;;11.20;99.90;;;;;;5013385;28;20485;-56
2021/11/02 09:56:03;;;;;;;2.30;1.43;;;11.30;99.90;;;;;;5013257;28;20383;-59
2021/11/02 09:58:40;;;;;;;3.57;1.63;;;11.50;99.90;;;;;;4993989;28;20419;-59
2021/11/02 10:01:31;;;;;;;3.47;1.90;;;11.50;99.90;;;;;;4994049;28;20474;-57
2021/11/02 10:04:14;;;;;;;2.20;1.30;;;11.60;99.90;;;;;;4993249;28;20468;-56
2021/11/02 10:06:48;;;;;;;4.17;1.40;;;11.60;99.90;;;;;;4993686;28;20416;-58
2021/11/02 10:09:35;;;;;;;3.53;1.30;;;11.60;99.90;;;;;;4999002;28;20415;-59
2021/11/02 10:12:51;;;;;;;3.30;1.30;;;11.60;99.90;;;;;;5000246;28;20757;-56
2021/11/02 10:15:24;;;;;;;3.43;1.60;;;11.70;99.90;;;;;;4939971;29;20448;-58
2021/11/02 10:18:13;;;;;;;3.10;1.70;;;11.60;99.90;;;;;;4940034;29;20449;-57
2021/11/02 10:20:54;;;;;;;3.10;1.60;;;11.60;99.90;;;;;;4985664;28;20434;-59
2021/11/02 10:23:44;;;;;;;2.03;1.43;;;11.50;99.90;;;;;;4999829;28;20469;-56
2021/11/02 10:26:43;;;;;;;2.50;2.00;;;11.40;99.90;;;;;;5055470;23;20488;-57
2021/11/02 10:29:34;;;;;;;3.57;1.90;;;11.20;99.90;;;;;;5039767;28;20385;-60
2021/11/02 10:32:06;;;;;;;2.40;1.73;;;11.40;99.90;;;;;;5038657;28;20886;-58
2021/11/02 10:34:49;;;;;;;2.40;1.67;;;11.50;99.90;;;;;;5036498;28;20433;-57
2021/11/02 10:37:40;;;;;;;2.63;1.80;;;11.60;99.90;;;;;;5002293;28;20399;-59
2021/11/02 10:40:16;;;;;;;2.60;1.60;;;11.70;99.90;;;;;;5010442;28;20442;-58
2021/11/02 10:43:35;;;;;;;4.20;1.80;;;11.80;99.90;;;;;;5019155;28;20433;-59
2021/11/02 10:46:05;;;;;;;2.53;1.60;;;11.90;99.90;;;;;;5018318;28;20433;-56
2021/11/02 10:48:48;;;;;;;5.80;1.87;;;11.90;99.90;;;;;;5019911;28;20452;-56
2021/11/02 10:51:23;;;;;;;4.20;1.90;;;12.00;99.90;;;;;;5019934;28;20393;-59
2021/11/02 10:54:12;;;;;;;4.80;1.57;;;11.80;99.90;;;;;;5019661;28;20414;-56
2021/11/02 10:56:46;;;;;;;2.20;1.43;;;11.60;99.90;;;;;;4983804;28;20497;-54
2021/11/02 10:59:15;;;;;;;1.57;1.47;;;11.50;99.90;;;;;;5020602;28;20481;-56
2021/11/02 11:01:46;;;;;;;2.20;1.77;;;11.50;99.90;;;;;;5019992;28;20411;-56
2021/11/02 11:04:15;;;;;;;2.23;1.70;;;11.60;99.90;;;;;;5019738;28;20430;-55
2021/11/02 11:06:45;;;;;;;2.13;1.57;;;11.80;99.90;;;;;;5002147;28;20821;-56
2021/11/02 11:09:12;;;;;;;2.70;1.87;;;11.80;99.90;;;;;;5019458;28;20406;-60
2021/11/02 11:11:44;;;;;;;3.03;2.00;;;12.10;99.90;;;;;;5019385;28;20432;-59
2021/11/02 11:14:14;;;;;;;2.30;1.37;;;12.20;99.90;;;;;;5019441;28;20395;-58
2021/11/02 11:16:47;;;;;;;3.20;1.57;;;12.10;99.90;;;;;;5019739;28;20421;-59
2021/11/02 11:19:29;;;;;;;1.60;1.50;;;11.80;99.90;;;;;;5016109;28;20799;-58
2021/11/02 11:22:01;;;;;;;3.77;1.90;;;11.70;99.90;;;;;;5015733;28;20403;-59
2021/11/02 11:24:43;;;;;;;1.30;1.20;;;11.60;99.90;;;;;;5015993;28;20442;-57
2021/11/02 11:27:10;;;;;;;1.13;1.00;;;11.80;99.90;;;;;;5016268;28;20469;-58
2021/11/02 11:29:43;;;;;;;1.87;1.20;;;12.10;99.90;;;;;;5016111;28;20921;-58
2021/11/02 11:32:09;;;;;;;2.33;1.40;;;12.20;99.90;;;;;;5016540;28;20420;-58
2021/11/02 11:34:41;;;;;;;2.23;1.63;;;12.40;99.90;;;;;;5015902;28;20420;-58
2021/11/02 11:37:10;;;;;;;3.10;1.60;;;12.20;99.90;;;;;;5016170;28;20396;-58
2021/11/02 11:39:37;;;;;;;2.40;1.50;;;12.50;99.90;;;;;;5016393;28;20408;-57
2021/11/02 11:42:03;;;;;;;1.60;1.50;;;12.80;99.90;;;;;;5015955;28;20522;-59
2021/11/02 11:44:30;;;;;;;2.13;1.50;;;12.90;99.90;;;;;;5015942;28;20463;-57
2021/11/02 11:47:09;;;;;;;2.80;1.80;;;13.00;99.90;;;;;;5015642;28;20403;-56
2021/11/02 11:49:37;;;;;;;1.20;1.10;;;13.40;99.90;;;;;;5015719;28;20418;-58
2021/11/02 11:52:05;;;;;;;1.77;1.23;;;13.80;99.90;;;;;;5015688;28;20418;-56
2021/11/02 11:54:44;;;;;;;2.00;1.30;;;14.30;99.90;;;;;;5015619;28;20406;-58
2021/11/02 11:57:10;;;;;;;1.50;1.30;;;14.40;99.90;;;;;;5015456;28;20435;-56
2021/11/02 11:59:36;;;;;;;1.47;1.20;;;14.50;99.90;;;;;;5015268;28;20465;-55
2021/11/02 12:02:19;;;;;;;2.90;1.50;;;14.40;99.90;;;;;;5015613;28;20457;-58
2021/11/02 12:04:55;;;;;;;1.73;1.30;;;13.80;99.90;;;;;;5015123;28;20230;-58
2021/11/02 12:07:42;;;;;;;1.97;1.10;;;13.70;99.90;;;;;;5015385;28;20847;-57
2021/11/02 12:10:11;;;;;;;1.40;1.10;;;13.80;99.90;;;;;;5015746;28;20784;-59
2021/11/02 12:12:39;;;;;;;0.97;0.80;;;13.50;99.90;;;;;;5015445;28;20400;-57
2021/11/02 12:15:11;;;;;;;1.10;0.83;;;13.30;99.90;;;;;;5015107;28;20545;-57
2021/11/02 12:17:43;;;;;;;1.23;1.10;;;13.20;99.90;;;;;;5014826;28;20396;-57
2021/11/02 12:20:14;;;;;;;0.90;0.73;;;13.50;99.90;;;;;;5015352;28;20383;-53
2021/11/02 12:22:51;;;;;;;2.10;1.00;;;13.30;99.90;;;;;;5008466;28;20412;-56
2021/11/02 12:25:21;;;;;;;2.40;0.80;;;12.90;99.90;;;;;;4995336;28;20475;-57
2021/11/02 12:27:47;;;;;;;1.00;0.80;;;13.10;99.90;;;;;;5009658;28;20407;-57
2021/11/02 12:30:16;;;;;;;0.90;0.80;;;13.30;99.90;;;;;;5014682;28;20413;-57
2021/11/02 12:32:46;;;;;;;1.43;0.70;;;13.20;99.90;;;;;;5014664;28;20520;-58
2021/11/02 12:35:19;;;;;;;0.90;0.70;;;13.20;99.90;;;;;;5015232;28;20507;-58
2021/11/02 12:38:00;;;;;;;0.90;0.70;;;13.00;99.90;;;;;;4997502;28;20419;-56
2021/11/02 12:40:33;;;;;;;0.90;0.80;;;12.80;99.90;;;;;;5014718;28;20400;-59
2021/11/02 12:42:58;;;;;;;0.80;0.63;;;12.90;99.90;;;;;;5014940;28;20460;-57
2021/11/02 12:45:27;;;;;;;1.00;0.60;;;12.70;99.90;;;;;;5014690;28;20424;-55
2021/11/02 12:47:59;;;;;;;1.37;0.70;;;12.70;99.90;;;;;;5014150;28;20169;-57
2021/11/02 12:50:29;;;;;;;0.70;0.50;;;13.00;99.90;;;;;;5014764;28;20384;-54
2021/11/02 12:52:57;;;;;;;1.00;0.60;;;13.20;99.90;;;;;;5014638;28;20411;-56
2021/11/02 12:55:32;;;;;;;0.70;0.53;;;13.40;99.90;;;;;;5014638;28;20444;-59
2021/11/02 12:58:20;;;;;;;0.90;0.60;;;13.50;99.90;;;;;;5014384;28;20412;-58
2021/11/02 13:01:00;;;;;;;1.17;0.60;;;13.50;99.90;;;;;;5014527;28;20853;-55
2021/11/02 13:03:29;;;;;;;0.90;0.60;;;14.00;99.90;;;;;;5013895;28;20445;-56
2021/11/02 13:05:58;;;;;;;5.60;0.60;;;15.00;99.90;;;;;;5013465;28;20458;-58
2021/11/02 13:08:53;;;;;;;0.73;0.50;;;17.40;99.90;;;;;;5014587;28;20502;-58
2021/11/02 13:11:21;;;;;;;1.10;0.50;;;17.30;99.90;;;;;;5005057;28;20418;-56
2021/11/02 13:14:04;;;;;;;0.70;0.53;;;17.00;99.90;;;;;;5014454;28;20768;-59
2021/11/02 13:16:51;;;;;;;0.80;0.50;;;16.90;99.90;;;;;;5014171;28;20425;-56
2021/11/02 13:19:17;;;;;;;1.50;0.60;;;15.90;99.90;;;;;;5012891;28;20451;-54
2021/11/02 13:21:44;;;;;;;0.90;0.60;;;15.20;99.90;;;;;;5014213;28;20771;-58
2021/11/02 13:24:16;;;;;;;0.90;0.50;;;14.80;99.90;;;;;;5000174;28;20471;-56
2021/11/02 13:26:45;;;;;;;0.70;0.50;;;14.20;99.90;;;;;;4982662;28;20453;-58
2021/11/02 13:29:16;;;;;;;1.13;0.70;;;13.80;99.90;;;;;;5013758;28;20406;-57
2021/11/02 13:31:55;;;;;;;0.70;0.50;;;13.60;99.90;;;;;;5013804;28;20861;-57
2021/11/02 13:34:29;;;;;;;0.90;0.60;;;13.40;99.90;;;;;;4996003;28;20416;-59
2021/11/02 13:37:18;;;;;;;0.70;0.50;;;13.20;99.90;;;;;;5013866;28;20490;-56
2021/11/02 13:40:00;;;;;;;1.03;0.57;;;13.00;99.90;;;;;;5013670;28;20576;-57
2021/11/02 13:42:48;;;;;;;1.03;0.60;;;12.70;99.90;;;;;;5013200;28;20411;-55
2021/11/02 13:45:17;;;;;;;1.13;0.60;;;12.70;99.90;;;;;;5013505;28;20948;-55
2021/11/02 13:47:43;;;;;;;0.90;0.60;;;12.90;99.90;;;;;;5013456;28;20415;-58
2021/11/02 13:50:09;;;;;;;0.70;0.47;;;13.00;99.90;;;;;;5013197;28;20404;-56
2021/11/02 13:52:35;;;;;;;0.90;0.60;;;13.10;99.90;;;;;;5013451;28;20169;-52
2021/11/02 13:55:02;;;;;;;1.20;0.53;;;13.00;99.90;;;;;;4995907;28;20414;-54
2021/11/02 13:57:28;;;;;;;1.33;1.23;;;13.10;99.90;;;;;;5013352;28;20536;-59
2021/11/02 13:59:54;;;;;;;0.60;0.40;;;13.00;99.90;;;;;;5012531;28;20415;-59
2021/11/02 14:02:22;;;;;;;0.80;0.40;;;12.60;99.90;;;;;;5013249;28;20172;-54
2021/11/02 14:04:50;;;;;;;0.80;0.50;;;12.30;99.90;;;;;;5012723;28;20199;-55
2021/11/02 14:07:24;;;;;;;0.73;0.60;;;12.50;99.90;;;;;;5013304;28;20403;-53
2021/11/02 14:09:58;;;;;;;2.23;1.40;;;12.40;99.90;;;;;;5013336;28;20925;-55
2021/11/02 14:12:31;;;;;;;0.70;0.60;;;12.40;99.90;;;;;;5013182;28;20384;-53
2021/11/02 14:15:12;;;;;;;1.23;0.70;;;12.60;99.90;;;;;;5011911;28;20970;-53
2021/11/02 14:17:39;;;;;;;1.47;0.60;;;12.90;99.90;;;;;;5002814;28;20458;-53
2021/11/02 14:20:06;;;;;;;2.03;0.77;;;12.90;99.90;;;;;;4994085;28;20415;-51
2021/11/02 14:22:52;;;;;;;0.80;0.67;;;13.10;99.90;;;;;;5007795;28;20418;-54
2021/11/02 14:25:20;;;;;;;0.80;0.60;;;13.10;99.90;;;;;;5012889;28;20451;-52
2021/11/02 14:27:48;;;;;;;1.83;0.50;;;13.20;99.90;;;;;;5013054;28;20510;-55
2021/11/02 14:30:32;;;;;;;0.90;0.60;;;13.00;99.90;;;;;;5013320;28;20772;-53
2021/11/02 14:33:03;;;;;;;1.10;0.50;;;12.90;99.90;;;;;;5013946;28;20723;-56
2021/11/02 14:35:46;;;;;;;1.10;0.70;;;12.90;99.90;;;;;;5013195;28;20976;-54
2021/11/02 14:38:11;;;;;;;1.23;0.50;;;13.00;99.90;;;;;;5013065;28;20378;-53
2021/11/02 14:40:46;;;;;;;1.00;0.70;;;13.00;99.90;;;;;;5013268;28;20431;-55
2021/11/02 14:43:12;;;;;;;1.00;0.70;;;13.00;99.90;;;;;;5013054;28;20183;-54
2021/11/02 14:45:43;;;;;;;1.53;0.80;;;12.70;99.90;;;;;;5013040;28;20519;-57
2021/11/02 14:48:27;;;;;;;0.80;0.60;;;12.60;99.90;;;;;;5013063;28;20164;-54
2021/11/02 14:51:12;;;;;;;0.90;0.50;;;12.90;99.90;;;;;;5012972;28;20553;-53
2021/11/02 14:53:41;;;;;;;0.93;0.77;;;13.00;99.90;;;;;;5013240;28;20445;-58
2021/11/02 14:56:20;;;;;;;1.23;0.77;;;12.50;99.90;;;;;;5016594;28;20485;-55
2021/11/02 14:58:53;;;;;;;1.10;1.00;;;12.40;99.90;;;;;;5016782;28;20775;-52
2021/11/02 15:01:19;;;;;;;1.13;0.70;;;12.60;99.90;;;;;;5016715;28;20390;-52
2021/11/02 15:04:15;;;;;;;1.40;1.30;;;12.60;99.90;;;;;;5016645;28;20783;-53
2021/11/02 15:06:47;;;;;;;1.87;1.10;;;12.40;99.90;;;;;;5016289;28;20162;-57
2021/11/02 15:09:19;;;;;;;1.30;0.90;;;12.40;99.90;;;;;;5016459;28;20728;-52
2021/11/02 15:11:49;;;;;;;2.27;1.30;;;12.10;99.90;;;;;;5016094;28;20919;-56
2021/11/02 15:14:16;;;;;;;2.00;1.77;;;12.20;99.90;;;;;;5016449;28;20407;-51
2021/11/02 15:16:51;;;;;;;1.80;1.43;;;12.20;99.90;;;;;;5015984;28;20407;-55
2021/11/02 15:19:18;;;;;;;3.60;2.23;;;12.00;99.90;;;;;;5015767;28;20413;-51
2021/11/02 15:21:50;;;;;;;3.30;2.70;;;12.00;99.90;;;;;;5016226;28;20766;-53
2021/11/02 15:24:20;;;;;;;1.43;1.00;;;11.90;99.90;;;;;;5015861;28;20473;-51
2021/11/02 15:26:56;;;;;;;1.80;1.13;;;12.00;99.90;;;;;;5016312;28;20827;-54
2021/11/02 15:29:28;;;;;;;1.30;0.77;;;12.10;99.90;;;;;;5016064;28;20402;-57
2021/11/02 15:32:07;;;;;;;1.30;0.60;;;11.80;99.90;;;;;;5012868;28;20396;-54
2021/11/02 15:35:00;;;;;;;0.80;0.60;;;11.60;99.90;;;;;;5008013;28;20433;-56
2021/11/02 15:37:30;;;;;;;0.83;0.70;;;11.60;99.90;;;;;;5012650;28;20415;-54
2021/11/02 15:40:03;;;;;;;0.83;0.57;;;11.70;99.90;;;;;;5015652;28;20409;-51
2021/11/02 15:42:42;;;;;;;1.03;0.60;;;11.60;99.90;;;;;;5014949;28;20964;-54
2021/11/02 15:45:30;;;;;;;1.03;0.70;;;11.30;99.90;;;;;;5015632;28;20456;-53
2021/11/02 15:48:08;;;;;;;0.80;0.60;;;11.20;99.90;;;;;;5015310;28;20847;-53
2021/11/02 15:50:35;;;;;;;1.33;0.80;;;11.20;99.90;;;;;;4997058;28;20429;-55
2021/11/02 15:53:06;;;;;;;1.03;0.70;;;11.10;99.90;;;;;;5015633;28;20853;-56
2021/11/02 15:55:32;;;;;;;2.03;0.70;;;11.10;99.90;;;;;;5015650;28;20427;-53
2021/11/02 15:58:02;;;;;;;1.53;0.80;;;11.00;99.90;;;;;;5015650;28;20497;-53
2021/11/02 16:00:32;;;;;;;1.10;0.90;;;11.00;99.90;;;;;;5014681;28;20423;-52
2021/11/02 16:02:59;;;;;;;0.70;0.60;;;11.00;99.90;;;;;;5015264;28;20413;-53
2021/11/02 16:05:29;;;;;;;0.87;0.60;;;11.10;99.90;;;;;;5014845;28;20423;-54
2021/11/02 16:07:57;;;;;;;0.90;0.77;;;11.10;99.90;;;;;;5015348;28;20410;-53
2021/11/02 16:10:31;;;;;;;0.73;0.63;;;10.70;99.90;;;;;;5015261;28;20399;-52
2021/11/02 16:13:02;;;;;;;1.00;0.87;;;10.70;99.90;;;;;;5015129;28;20889;-53
2021/11/02 16:15:31;;;;;;;1.10;0.60;;;10.90;99.90;;;;;;5015027;28;20419;-54
2021/11/02 16:17:59;;;;;;;0.80;0.60;;;10.80;99.90;;;;;;5015177;28;20414;-54
2021/11/02 16:20:36;;;;;;;1.20;1.10;;;10.70;99.90;;;;;;5015211;28;20879;-51
2021/11/02 16:23:10;;;;;;;2.20;2.00;;;10.80;99.90;;;;;;4997529;28;20962;-55
2021/11/02 16:25:42;;;;;;;1.40;1.13;;;10.90;99.90;;;;;;5015119;28;20969;-54
2021/11/02 16:28:15;;;;;;;1.30;0.97;;;10.80;99.90;;;;;;5048757;22;20528;-57
2021/11/02 16:30:56;;;;;;;2.30;1.30;;;10.80;99.90;;;;;;5005364;28;20440;-57
2021/11/02 16:33:38;;;;;;;1.00;0.80;;;10.80;99.90;;;;;;5015371;28;20432;-58
2021/11/02 16:36:44;;;;;;;1.50;0.97;;;10.90;99.90;;;;;;5014929;28;20515;-57
2021/11/02 16:39:13;;;;;;;2.00;0.93;;;11.00;99.90;;;;;;5008817;28;20429;-58
2021/11/02 16:41:53;;;;;;;1.10;0.70;;;11.00;99.90;;;;;;5014497;28;20907;-57
2021/11/02 16:44:28;;;;;;;0.90;0.73;;;11.10;99.90;;;;;;5015101;28;20458;-56
2021/11/02 16:47:07;;;;;;;1.20;1.10;;;11.10;99.90;;;;;;5000876;28;20999;-56
2021/11/02 16:49:34;;;;;;;3.20;1.03;;;11.20;99.90;;;;;;4987772;28;20407;-57
2021/11/02 16:52:08;;;;;;;1.20;1.00;;;11.20;99.90;;;;;;4995455;28;20400;-57
2021/11/02 16:54:40;;;;;;;2.10;1.03;;;11.20;99.90;;;;;;4995725;28;20453;-57
2021/11/02 16:57:18;;;;;;;2.77;2.17;;;11.30;99.90;;;;;;4995077;28;20471;-53
2021/11/02 17:00:03;;;;;;;2.27;2.07;;;11.20;99.90;;;;;;4994776;28;20396;-57
2021/11/02 17:02:35;;;;;;;2.40;1.60;;;11.20;99.90;;;;;;4995090;28;20426;-57
2021/11/02 17:05:05;;;;;;;2.27;1.60;;;11.20;99.90;;;;;;4994728;28;20487;-57
2021/11/02 17:07:49;;;;;;;1.90;1.60;;;11.10;99.90;;;;;;4997732;28;20454;-57
2021/11/02 17:10:24;;;;;;;2.20;1.67;;;11.10;99.90;;;;;;5014626;28;20395;-57
2021/11/02 17:12:54;;;;;;;2.40;2.20;;;11.00;99.90;;;;;;5014109;28;20461;-53
2021/11/02 17:15:25;;;;;;;2.83;2.33;;;11.00;99.90;;;;;;5014427;28;20411;-57
2021/11/02 17:17:52;;;;;;;5.30;2.50;;;11.10;99.90;;;;;;5013686;28;20434;-56
2021/11/02 17:20:18;;;;;;;2.63;2.23;;;11.00;99.90;;;;;;5018099;28;20399;-57
2021/11/02 17:22:46;;;;;;;2.30;2.10;;;11.10;99.90;;;;;;5014223;28;20464;-55
2021/11/02 17:25:12;;;;;;;5.37;4.53;;;11.10;99.90;;;;;;5014280;28;20672;-57
2021/11/02 17:27:38;;;;;;;4.97;4.47;;;10.80;99.90;;;;;;5013810;28;20549;-54
2021/11/02 17:30:05;;;;;;;3.93;3.17;;;10.80;99.90;;;;;;5014048;28;20406;-55
2021/11/02 17:32:32;;;;;;;2.87;2.67;;;10.70;99.90;;;;;;4997760;28;20172;-57
2021/11/02 17:34:59;;;;;;;3.03;2.83;;;10.70;99.90;;;;;;4986781;28;20415;-57
2021/11/02 17:37:30;;;;;;;2.57;2.37;;;10.70;99.90;;;;;;4996447;28;20811;-58
2021/11/02 17:39:58;;;;;;;2.63;2.43;;;10.60;99.90;;;;;;5001781;28;20407;-58
2021/11/02 17:42:23;;;;;;;3.20;2.90;;;10.50;99.90;;;;;;4993925;28;20411;-58
2021/11/02 17:44:49;;;;;;;3.20;2.87;;;10.50;99.90;;;;;;4994579;28;20455;-56
2021/11/02 17:47:15;;;;;;;3.00;2.73;;;10.50;99.90;;;;;;4992843;28;20725;-58
2021/11/02 17:49:41;;;;;;;3.27;2.57;;;10.40;99.90;;;;;;4994327;28;20529;-57
2021/11/02 17:52:10;;;;;;;3.50;3.20;;;10.40;99.90;;;;;;4993992;28;20415;-58
2021/11/02 17:54:37;;;;;;;3.70;2.87;;;10.30;99.90;;;;;;4992972;28;20168;-55
2021/11/02 17:57:04;;;;;;;5.13;4.70;;;10.30;99.90;;;;;;4987833;28;20453;-58
2021/11/02 17:59:30;;;;;;;4.50;4.10;;;10.10;99.90;;;;;;4996806;28;20504;-57
2021/11/02 18:01:57;;;;;;;5.00;4.60;;;10.10;99.90;;;;;;4982052;28;20424;-55
2021/11/02 18:04:22;;;;;;;3.60;3.30;;;10.00;99.90;;;;;;4993908;28;20493;-58
2021/11/02 18:06:48;;;;;;;5.90;4.33;;;9.80;99.90;;;;;;4994129;28;20430;-57
2021/11/02 18:09:15;;;;;;;7.13;6.43;;;9.70;99.90;;;;;;4994121;28;20668;-57
2021/11/02 18:11:43;;;;;;;7.13;6.43;;;9.80;99.90;;;;;;4994519;28;20583;-54
2021/11/02 18:14:10;;;;;;;8.37;7.57;;;9.70;99.90;;;;;;4993690;28;20442;-55
2021/11/02 18:16:38;;;;;;;6.63;5.77;;;9.70;99.90;;;;;;4993886;28;20409;-56